Time;durP1;ratioP1;P1;durP2;ratioP2;P2;SDS_P1;SDS_P2;PMS_P1;PMS_P2;Temp;Humidity;BMP_temperature;BMP_pressure;BME280_temperature;BME280_humidity;BME280_pressure;Samples;Min_cycle;Max_cycle;Signal;HPM_P1;HPM_P2
2022/11/20 00:01:51;;;;;;;29.85;18.05;;;;;;;;;;6267656;28;20053;-63
2022/11/20 00:04:53;;;;;;;28.92;17.98;;;;;;;;;;6268859;28;20369;-63
2022/11/20 00:07:56;;;;;;;31.73;18.10;;;;;;;;;;6266195;28;20045;-63
2022/11/20 00:10:58;;;;;;;34.03;18.08;;;;;;;;;;6270153;28;20119;-63
2022/11/20 00:14:01;;;;;;;32.08;18.55;;;;;;;;;;6268729;28;20053;-63
2022/11/20 00:17:03;;;;;;;30.02;18.58;;;;;;;;;;6268069;28;20053;-63
2022/11/20 00:20:05;;;;;;;30.40;18.67;;;;;;;;;;6265987;28;20055;-63
2022/11/20 00:23:08;;;;;;;28.45;17.67;;;;;;;;;;6267850;28;20057;-63
2022/11/20 00:26:12;;;;;;;31.00;18.92;;;;;;;;;;6266023;28;20057;-63
2022/11/20 00:29:14;;;;;;;30.75;17.65;;;;;;;;;;6259528;28;20112;-63
2022/11/20 00:32:15;;;;;;;33.72;18.90;;;;;;;;;;6268152;28;20053;-63
2022/11/20 00:35:17;;;;;;;30.25;18.08;;;;;;;;;;6269328;28;20044;-63
2022/11/20 00:38:20;;;;;;;33.30;18.98;;;;;;;;;;6261972;28;20041;-63
2022/11/20 00:41:22;;;;;;;33.55;18.30;;;;;;;;;;6266554;28;20239;-63
2022/11/20 00:44:24;;;;;;;30.40;17.95;;;;;;;;;;6266496;28;20048;-63
2022/11/20 00:47:25;;;;;;;34.97;19.52;;;;;;;;;;6266707;28;20053;-63
2022/11/20 00:50:27;;;;;;;27.60;18.08;;;;;;;;;;6269108;28;20051;-63
2022/11/20 00:53:31;;;;;;;28.83;17.35;;;;;;;;;;6267076;28;20053;-63
2022/11/20 00:56:32;;;;;;;;;;;;;;;;;;6268508;28;20052;-63
2022/11/20 00:59:34;;;;;;;31.52;17.95;;;;;;;;;;6261926;28;19924;-62
2022/11/20 01:02:36;;;;;;;30.17;18.50;;;;;;;;;;6269297;28;20057;-62
2022/11/20 01:05:37;;;;;;;32.03;18.58;;;;;;;;;;6268009;28;20295;-62
2022/11/20 01:08:40;;;;;;;31.83;19.00;;;;;;;;;;6270394;28;20170;-62
2022/11/20 01:11:44;;;;;;;29.73;18.90;;;;;;;;;;6265960;28;20053;-63
2022/11/20 01:14:45;;;;;;;34.10;19.65;;;;;;;;;;6265328;28;20041;-61
2022/11/20 01:17:47;;;;;;;31.52;19.52;;;;;;;;;;6267896;28;20053;-62
2022/11/20 01:20:49;;;;;;;28.25;18.13;;;;;;;;;;6266284;28;20206;-62
2022/11/20 01:23:52;;;;;;;32.80;19.13;;;;;;;;;;6266365;28;20045;-62
2022/11/20 01:26:53;;;;;;;29.65;18.38;;;;;;;;;;6264658;28;20237;-63
2022/11/20 01:29:55;;;;;;;32.95;18.92;;;;;;;;;;6266604;28;20049;-62
2022/11/20 01:32:57;;;;;;;29.17;18.67;;;;;;;;;;6266247;28;20081;-62
2022/11/20 01:36:06;;;;;;;30.48;17.55;;;;;;;;;;6262691;28;20194;-62
2022/11/20 01:39:12;;;;;;;27.27;17.52;;;;;;;;;;6261292;28;20687;-62
2022/11/20 01:46:00;;;;;;;28.05;16.73;;;;;;;;;;6257987;28;20051;-62
2022/11/20 01:49:04;;;;;;;27.27;16.58;;;;;;;;;;6243303;28;20333;-62
2022/11/20 01:52:09;;;;;;;26.75;16.73;;;;;;;;;;6264860;28;21443;-62
2022/11/20 01:55:14;;;;;;;24.13;15.82;;;;;;;;;;6264568;28;20053;-62
2022/11/20 01:58:16;;;;;;;26.38;16.55;;;;;;;;;;6264481;28;20064;-62
2022/11/20 02:01:18;;;;;;;23.40;15.75;;;;;;;;;;6261859;28;20073;-62
2022/11/20 02:04:20;;;;;;;24.13;15.50;;;;;;;;;;6262219;28;20116;-62
2022/11/20 02:07:23;;;;;;;23.70;15.68;;;;;;;;;;6264373;28;20053;-62
2022/11/20 02:10:27;;;;;;;25.20;16.05;;;;;;;;;;6266931;28;21431;-62
2022/11/20 02:16:49;;;;;;;27.00;16.35;;;;;;;;;;6267631;28;20117;-62
2022/11/20 02:19:50;;;;;;;23.08;14.60;;;;;;;;;;6272449;28;20052;-63
2022/11/20 02:22:56;;;;;;;28.83;16.85;;;;;;;;;;6268082;28;20056;-62
2022/11/20 02:25:59;;;;;;;24.02;16.20;;;;;;;;;;6265902;28;20057;-64
2022/11/20 02:29:02;;;;;;;22.23;15.30;;;;;;;;;;6261133;28;20064;-62
2022/11/20 02:32:04;;;;;;;21.13;14.40;;;;;;;;;;6269419;28;20507;-63
2022/11/20 02:35:09;;;;;;;21.23;14.52;;;;;;;;;;6266649;28;20069;-62
2022/11/20 02:38:11;;;;;;;22.85;15.23;;;;;;;;;;6259822;28;20056;-63
2022/11/20 02:41:14;;;;;;;19.80;14.48;;;;;;;;;;6268022;28;20099;-63
2022/11/20 02:44:15;;;;;;;22.98;14.77;;;;;;;;;;6259270;28;20245;-62
2022/11/20 02:47:17;;;;;;;25.85;15.20;;;;;;;;;;6264337;28;20072;-62
2022/11/20 02:50:19;;;;;;;23.77;15.15;;;;;;;;;;6266069;28;20052;-62
2022/11/20 02:53:20;;;;;;;23.33;15.27;;;;;;;;;;6261328;28;20485;-62
2022/11/20 02:56:24;;;;;;;23.20;14.60;;;;;;;;;;6266792;28;20332;-62
2022/11/20 02:59:25;;;;;;;24.87;13.87;;;;;;;;;;6268451;28;20134;-62
2022/11/20 03:02:30;;;;;;;24.20;15.45;;;;;;;;;;6268836;28;20061;-62
2022/11/20 03:05:32;;;;;;;17.48;12.88;;;;;;;;;;6268723;28;20051;-62
2022/11/20 03:08:33;;;;;;;20.52;13.18;;;;;;;;;;6264917;28;20092;-64
2022/11/20 03:11:36;;;;;;;21.63;13.00;;;;;;;;;;6263043;28;20229;-62
2022/11/20 03:14:38;;;;;;;19.50;12.48;;;;;;;;;;6266471;28;20140;-62
2022/11/20 03:17:40;;;;;;;19.52;12.57;;;;;;;;;;6257998;28;20065;-61
2022/11/20 03:20:41;;;;;;;19.25;12.60;;;;;;;;;;6267996;28;20123;-62
2022/11/20 03:23:43;;;;;;;17.83;12.05;;;;;;;;;;6259049;28;20107;-61
2022/11/20 03:26:46;;;;;;;18.13;11.88;;;;;;;;;;6253181;28;20046;-61
2022/11/20 03:29:48;;;;;;;16.63;11.35;;;;;;;;;;6261185;28;20050;-62
2022/11/20 03:32:49;;;;;;;18.30;12.20;;;;;;;;;;6263765;28;20038;-62
2022/11/20 03:35:51;;;;;;;19.67;11.57;;;;;;;;;;6265912;28;20049;-62
2022/11/20 03:38:54;;;;;;;19.77;11.60;;;;;;;;;;6266873;28;20052;-62
2022/11/20 03:41:57;;;;;;;18.23;11.48;;;;;;;;;;6264906;28;20233;-63
2022/11/20 03:44:58;;;;;;;16.50;11.13;;;;;;;;;;6261704;28;20364;-62
2022/11/20 03:48:00;;;;;;;18.20;11.52;;;;;;;;;;6263147;28;20053;-61
2022/11/20 03:51:10;;;;;;;16.95;11.00;;;;;;;;;;6266390;28;20090;-61
2022/11/20 03:54:12;;;;;;;18.02;11.05;;;;;;;;;;6267033;28;20316;-62
2022/11/20 03:57:15;;;;;;;19.48;11.55;;;;;;;;;;6265129;28;20057;-62
2022/11/20 04:00:17;;;;;;;16.98;11.05;;;;;;;;;;6268611;28;20354;-62
2022/11/20 04:03:18;;;;;;;17.38;11.25;;;;;;;;;;6261611;28;20056;-61
2022/11/20 04:06:21;;;;;;;18.40;12.18;;;;;;;;;;6263859;28;20108;-62
2022/11/20 04:09:23;;;;;;;17.38;10.73;;;;;;;;;;6262973;28;20049;-62
2022/11/20 04:12:26;;;;;;;15.68;10.63;;;;;;;;;;6265712;28;20056;-62
2022/11/20 04:15:28;;;;;;;14.70;10.07;;;;;;;;;;6270196;28;20379;-62
2022/11/20 04:18:29;;;;;;;15.60;10.80;;;;;;;;;;6269430;28;20052;-62
2022/11/20 04:21:31;;;;;;;15.00;10.40;;;;;;;;;;6268457;28;20616;-62
2022/11/20 04:24:33;;;;;;;15.45;9.95;;;;;;;;;;6270044;28;20059;-62
2022/11/20 04:27:36;;;;;;;16.70;10.98;;;;;;;;;;6260102;28;20355;-62
2022/11/20 04:30:37;;;;;;;18.15;10.13;;;;;;;;;;6268779;28;20048;-62
2022/11/20 04:33:40;;;;;;;16.40;10.32;;;;;;;;;;6262942;28;20045;-62
2022/11/20 04:36:42;;;;;;;16.75;10.32;;;;;;;;;;6268573;28;20265;-62
2022/11/20 04:39:43;;;;;;;15.18;10.32;;;;;;;;;;6268143;28;20056;-62
2022/11/20 04:42:46;;;;;;;14.95;10.55;;;;;;;;;;6260628;28;20103;-62
2022/11/20 04:45:51;;;;;;;13.38;9.52;;;;;;;;;;6258884;28;20337;-62
2022/11/20 04:48:53;;;;;;;15.88;9.93;;;;;;;;;;6267936;28;20045;-62
2022/11/20 04:51:55;;;;;;;13.63;9.23;;;;;;;;;;6260592;28;20083;-62
2022/11/20 04:54:56;;;;;;;16.63;9.80;;;;;;;;;;6267013;28;20053;-62
2022/11/20 04:57:59;;;;;;;14.82;8.98;;;;;;;;;;6267379;28;20060;-62
2022/11/20 05:01:03;;;;;;;15.45;9.00;;;;;;;;;;6262244;28;20053;-62
2022/11/20 05:04:05;;;;;;;14.63;9.63;;;;;;;;;;6267847;28;20554;-62
2022/11/20 05:07:07;;;;;;;15.10;8.88;;;;;;;;;;6266174;28;20061;-62
2022/11/20 05:10:09;;;;;;;13.55;8.73;;;;;;;;;;6259491;28;20076;-61
2022/11/20 05:13:12;;;;;;;13.38;9.23;;;;;;;;;;6266628;28;20114;-62
2022/11/20 05:16:16;;;;;;;10.93;8.13;;;;;;;;;;6265984;28;20061;-62
2022/11/20 05:19:17;;;;;;;14.55;8.60;;;;;;;;;;6267608;28;20041;-62
2022/11/20 05:22:20;;;;;;;14.50;8.27;;;;;;;;;;6269135;28;20060;-62
2022/11/20 05:25:22;;;;;;;12.13;7.97;;;;;;;;;;6260760;28;20254;-62
2022/11/20 05:28:25;;;;;;;12.73;8.23;;;;;;;;;;6263681;28;20053;-61
2022/11/20 05:31:27;;;;;;;12.07;7.70;;;;;;;;;;6268473;28;20065;-62
2022/11/20 05:34:29;;;;;;;15.45;9.20;;;;;;;;;;6268479;28;20206;-62
2022/11/20 05:37:30;;;;;;;12.63;7.75;;;;;;;;;;6270017;28;20056;-62
2022/11/20 05:40:32;;;;;;;12.82;8.02;;;;;;;;;;6264265;28;20064;-62
2022/11/20 05:43:36;;;;;;;12.35;7.90;;;;;;;;;;6269074;28;20052;-62
2022/11/20 05:46:37;;;;;;;14.43;8.13;;;;;;;;;;6259522;28;20166;-62
2022/11/20 05:49:39;;;;;;;16.55;9.25;;;;;;;;;;6266250;28;20222;-62
2022/11/20 05:52:41;;;;;;;10.65;7.95;;;;;;;;;;6260130;28;20041;-62
2022/11/20 05:55:42;;;;;;;13.88;8.98;;;;;;;;;;6266214;28;20057;-61
2022/11/20 05:58:45;;;;;;;12.45;7.90;;;;;;;;;;6261472;28;20056;-62
2022/11/20 06:01:47;;;;;;;13.70;8.03;;;;;;;;;;6265277;28;20368;-62
2022/11/20 06:04:49;;;;;;;13.73;8.15;;;;;;;;;;6266222;28;20108;-61
2022/11/20 06:07:50;;;;;;;13.15;8.25;;;;;;;;;;6264128;28;20057;-62
2022/11/20 06:10:52;;;;;;;13.43;8.48;;;;;;;;;;6267605;28;20063;-62
2022/11/20 06:13:55;;;;;;;11.05;8.00;;;;;;;;;;6267356;28;20225;-61
2022/11/20 06:16:57;;;;;;;12.05;8.25;;;;;;;;;;6268991;28;20052;-62
2022/11/20 06:19:58;;;;;;;12.68;8.70;;;;;;;;;;6265554;28;20056;-62
2022/11/20 06:23:00;;;;;;;12.98;8.52;;;;;;;;;;6267305;28;20049;-62
2022/11/20 06:26:03;;;;;;;12.32;8.52;;;;;;;;;;6265718;28;20049;-61
2022/11/20 06:29:06;;;;;;;10.80;7.93;;;;;;;;;;6265157;28;20049;-62
2022/11/20 06:32:08;;;;;;;10.95;7.75;;;;;;;;;;6263196;28;20325;-61
2022/11/20 06:35:10;;;;;;;14.18;7.57;;;;;;;;;;6267555;28;20079;-61
2022/11/20 06:38:12;;;;;;;10.18;7.15;;;;;;;;;;6264447;28;20047;-62
2022/11/20 06:41:15;;;;;;;13.52;8.32;;;;;;;;;;6265928;28;20083;-61
2022/11/20 06:44:18;;;;;;;13.02;7.90;;;;;;;;;;6266420;28;20652;-61
2022/11/20 06:47:20;;;;;;;11.73;7.35;;;;;;;;;;6265798;28;20131;-61
2022/11/20 06:50:22;;;;;;;11.77;7.65;;;;;;;;;;6268116;28;20048;-61
2022/11/20 06:53:24;;;;;;;10.45;7.43;;;;;;;;;;6264460;28;20284;-61
2022/11/20 06:56:25;;;;;;;11.43;7.97;;;;;;;;;;6264487;28;20053;-61
2022/11/20 06:59:28;;;;;;;9.88;6.88;;;;;;;;;;6263739;28;20447;-61
2022/11/20 07:02:30;;;;;;;10.25;7.68;;;;;;;;;;6263771;28;20320;-61
2022/11/20 07:05:32;;;;;;;10.88;7.18;;;;;;;;;;6264547;28;20051;-61
2022/11/20 07:08:34;;;;;;;11.07;6.80;;;;;;;;;;6263059;28;20099;-62
2022/11/20 07:11:35;;;;;;;12.63;7.60;;;;;;;;;;6267609;28;20045;-61
2022/11/20 07:14:38;;;;;;;11.93;6.50;;;;;;;;;;6265541;28;20072;-62
2022/11/20 07:17:40;;;;;;;8.48;5.78;;;;;;;;;;6266847;28;20053;-62
2022/11/20 07:20:42;;;;;;;9.23;5.93;;;;;;;;;;6267721;28;20297;-62
2022/11/20 07:23:43;;;;;;;8.90;5.53;;;;;;;;;;6267875;28;20275;-61
2022/11/20 07:26:47;;;;;;;9.75;5.68;;;;;;;;;;6265242;28;20072;-61
2022/11/20 07:29:50;;;;;;;8.05;5.28;;;;;;;;;;6264133;28;20053;-62
2022/11/20 07:32:52;;;;;;;7.72;5.25;;;;;;;;;;6266058;28;20075;-62
2022/11/20 07:35:53;;;;;;;6.30;5.22;;;;;;;;;;6268445;28;20057;-62
2022/11/20 07:38:55;;;;;;;6.00;4.75;;;;;;;;;;6270282;28;20052;-61
2022/11/20 07:41:57;;;;;;;7.30;4.75;;;;;;;;;;6269143;28;20069;-63
2022/11/20 07:44:59;;;;;;;7.75;5.10;;;;;;;;;;6268055;28;20340;-61
2022/11/20 07:48:01;;;;;;;7.30;5.47;;;;;;;;;;6268094;28;20115;-61
2022/11/20 07:51:03;;;;;;;7.25;5.28;;;;;;;;;;6269997;28;20325;-62
2022/11/20 07:54:05;;;;;;;7.63;5.47;;;;;;;;;;6270280;28;20391;-62
2022/11/20 07:57:06;;;;;;;8.48;5.30;;;;;;;;;;6269657;28;20259;-62
2022/11/20 08:00:12;;;;;;;7.72;5.47;;;;;;;;;;6272143;28;20059;-62
2022/11/20 08:03:13;;;;;;;9.05;5.43;;;;;;;;;;6267600;28;20336;-62
2022/11/20 08:06:15;;;;;;;7.85;5.45;;;;;;;;;;6267296;28;20057;-62
2022/11/20 08:09:17;;;;;;;9.43;5.68;;;;;;;;;;6258745;28;20045;-62
2022/11/20 08:15:41;;;;;;;5.93;4.78;;;;;;;;;;6266740;28;20116;-61
2022/11/20 08:18:42;;;;;;;6.43;4.95;;;;;;;;;;6270539;28;20057;-61
2022/11/20 08:21:44;;;;;;;7.15;5.28;;;;;;;;;;6268293;28;20061;-61
2022/11/20 08:24:46;;;;;;;7.75;5.47;;;;;;;;;;6263608;28;20119;-62
2022/11/20 08:27:48;;;;;;;7.28;5.28;;;;;;;;;;6268963;28;20053;-62
2022/11/20 08:30:51;;;;;;;7.13;5.20;;;;;;;;;;6268314;28;20107;-62
2022/11/20 08:33:53;;;;;;;8.67;6.03;;;;;;;;;;6268654;28;20060;-62
2022/11/20 08:36:54;;;;;;;8.20;6.20;;;;;;;;;;6271327;28;22524;-62
2022/11/20 08:39:56;;;;;;;9.13;6.13;;;;;;;;;;6268886;28;20138;-61
2022/11/20 08:42:58;;;;;;;7.97;5.40;;;;;;;;;;6266993;28;20728;-62
2022/11/20 08:46:01;;;;;;;7.50;5.18;;;;;;;;;;6255385;28;20080;-62
2022/11/20 08:49:03;;;;;;;7.63;5.03;;;;;;;;;;6269307;28;20063;-61
2022/11/20 08:52:05;;;;;;;12.02;5.10;;;;;;;;;;6269674;28;20056;-61
2022/11/20 08:55:08;;;;;;;8.35;5.03;;;;;;;;;;6269289;28;20041;-62
2022/11/20 08:58:10;;;;;;;7.13;5.28;;;;;;;;;;6267071;28;20044;-62
2022/11/20 09:01:13;;;;;;;5.82;4.72;;;;;;;;;;6262074;28;20049;-61
2022/11/20 09:04:15;;;;;;;5.60;4.47;;;;;;;;;;6266164;28;20100;-62
2022/11/20 09:07:17;;;;;;;6.32;4.82;;;;;;;;;;6266179;28;20045;-62
2022/11/20 09:10:18;;;;;;;7.40;4.72;;;;;;;;;;6270624;28;20063;-62
2022/11/20 09:13:20;;;;;;;6.70;4.50;;;;;;;;;;6254424;28;20041;-62
2022/11/20 09:16:23;;;;;;;5.63;3.97;;;;;;;;;;6257641;28;20046;-62
2022/11/20 09:19:25;;;;;;;5.10;4.30;;;;;;;;;;6260845;28;20114;-63
2022/11/20 09:22:26;;;;;;;6.72;3.90;;;;;;;;;;6266641;28;20113;-62
2022/11/20 09:25:29;;;;;;;4.53;3.35;;;;;;;;;;6270756;28;20111;-62
2022/11/20 09:28:31;;;;;;;4.88;3.45;;;;;;;;;;6257509;28;20056;-63
2022/11/20 09:31:34;;;;;;;4.07;3.53;;;;;;;;;;6269726;28;20295;-62
2022/11/20 09:34:36;;;;;;;4.07;3.25;;;;;;;;;;6266389;28;20040;-63
2022/11/20 09:37:37;;;;;;;4.40;3.38;;;;;;;;;;6268054;28;20106;-62
2022/11/20 09:40:41;;;;;;;4.25;3.53;;;;;;;;;;6266060;28;20241;-62
2022/11/20 09:43:50;;;;;;;4.45;3.75;;;;;;;;;;6266384;28;20061;-63
2022/11/20 09:46:57;;;;;;;4.95;4.15;;;;;;;;;;6265953;28;20344;-63
2022/11/20 09:50:07;;;;;;;5.82;4.22;;;;;;;;;;6264687;28;20059;-62
2022/11/20 09:53:14;;;;;;;5.05;4.28;;;;;;;;;;6263864;28;20202;-62
2022/11/20 09:56:17;;;;;;;4.75;4.32;;;;;;;;;;6266651;28;20045;-63
2022/11/20 09:59:23;;;;;;;;;;;;;;;;;;6267877;28;20056;-62
2022/11/20 10:02:30;;;;;;;4.55;4.10;;;;;;;;;;6266617;28;19920;-62
2022/11/20 10:05:36;;;;;;;4.82;4.30;;;;;;;;;;6267468;28;20317;-63
2022/11/20 10:08:45;;;;;;;4.57;3.97;;;;;;;;;;6264685;28;20313;-63
2022/11/20 10:11:51;;;;;;;4.93;3.83;;;;;;;;;;6264332;28;20072;-63
2022/11/20 10:15:16;;;;;;;4.68;3.70;;;;;;;;;;6263632;28;20272;-63
2022/11/20 10:18:28;;;;;;;3.78;3.38;;;;;;;;;;6249319;28;20053;-62
2022/11/20 10:21:36;;;;;;;5.38;3.80;;;;;;;;;;6250685;28;20065;-62
2022/11/20 10:24:46;;;;;;;5.75;4.15;;;;;;;;;;6252163;28;20045;-63
2022/11/20 10:27:59;;;;;;;5.05;4.55;;;;;;;;;;6251868;28;20113;-63
2022/11/20 10:31:04;;;;;;;5.35;4.20;;;;;;;;;;6250169;28;20052;-63
2022/11/20 10:34:15;;;;;;;6.10;4.10;;;;;;;;;;6252965;28;20053;-63
2022/11/20 10:37:19;;;;;;;5.35;4.38;;;;;;;;;;6251575;28;20049;-63
2022/11/20 10:40:24;;;;;;;5.80;5.13;;;;;;;;;;6250984;28;20057;-63
2022/11/20 10:43:33;;;;;;;6.10;4.60;;;;;;;;;;6250506;28;20103;-62
2022/11/20 10:46:39;;;;;;;5.65;4.15;;;;;;;;;;6250163;28;20069;-63
2022/11/20 10:49:43;;;;;;;6.20;4.90;;;;;;;;;;6249892;28;20049;-63
2022/11/20 10:52:52;;;;;;;7.65;5.85;;;;;;;;;;6250001;28;20112;-63
2022/11/20 10:55:57;;;;;;;6.93;5.18;;;;;;;;;;6250012;28;20057;-63
2022/11/20 10:59:11;;;;;;;5.00;4.50;;;;;;;;;;6251571;28;20053;-63
2022/11/20 11:02:19;;;;;;;5.43;4.68;;;;;;;;;;6251322;28;20051;-63
2022/11/20 11:05:33;;;;;;;4.90;4.18;;;;;;;;;;6252404;28;20061;-63
2022/11/20 11:08:38;;;;;;;4.28;3.88;;;;;;;;;;6251166;28;20045;-63
2022/11/20 11:11:40;;;;;;;6.45;3.80;;;;;;;;;;6244849;28;20052;-62
2022/11/20 11:14:46;;;;;;;5.53;3.83;;;;;;;;;;6255678;28;20045;-63
2022/11/20 11:17:48;;;;;;;5.40;4.63;;;;;;;;;;6261587;28;20052;-63
2022/11/20 11:20:53;;;;;;;5.63;4.45;;;;;;;;;;6267112;28;20341;-63
2022/11/20 11:24:00;;;;;;;6.20;4.70;;;;;;;;;;6265492;28;20148;-63
2022/11/20 11:27:06;;;;;;;5.93;4.55;;;;;;;;;;6263232;28;20041;-63
2022/11/20 11:30:18;;;;;;;5.45;4.30;;;;;;;;;;6261904;28;20128;-63
2022/11/20 11:33:21;;;;;;;5.28;4.50;;;;;;;;;;6265154;28;20048;-63
2022/11/20 11:36:25;;;;;;;5.80;4.55;;;;;;;;;;6264731;28;20049;-63
2022/11/20 11:39:28;;;;;;;5.28;4.78;;;;;;;;;;6261230;28;20055;-63
2022/11/20 11:42:30;;;;;;;6.07;4.30;;;;;;;;;;6262128;28;20065;-63
2022/11/20 11:45:32;;;;;;;5.03;4.37;;;;;;;;;;6262512;28;20069;-64
2022/11/20 11:48:34;;;;;;;6.40;4.90;;;;;;;;;;6265414;28;20053;-64
2022/11/20 11:51:42;;;;;;;5.22;4.50;;;;;;;;;;6262737;28;20340;-63
2022/11/20 11:54:48;;;;;;;5.57;4.75;;;;;;;;;;6262504;28;21687;-64
2022/11/20 11:57:55;;;;;;;5.78;5.15;;;;;;;;;;6262614;28;20096;-64
2022/11/20 12:01:01;;;;;;;6.10;5.30;;;;;;;;;;6264436;28;20218;-63
2022/11/20 12:04:06;;;;;;;7.22;5.15;;;;;;;;;;6265446;28;20107;-64
2022/11/20 12:07:12;;;;;;;5.20;4.70;;;;;;;;;;6264848;28;20053;-63
2022/11/20 12:10:20;;;;;;;6.22;4.80;;;;;;;;;;6261904;28;20103;-63
2022/11/20 12:13:29;;;;;;;5.88;4.75;;;;;;;;;;6265558;28;20111;-63
2022/11/20 12:16:36;;;;;;;5.47;4.93;;;;;;;;;;6253410;28;20053;-64
2022/11/20 12:19:38;;;;;;;6.25;4.97;;;;;;;;;;6233306;28;20046;-63
2022/11/20 12:22:48;;;;;;;5.80;5.13;;;;;;;;;;6242229;28;20305;-64
2022/11/20 12:25:51;;;;;;;5.82;4.90;;;;;;;;;;6243061;28;20046;-64
2022/11/20 12:29:02;;;;;;;8.13;5.25;;;;;;;;;;6242925;28;20057;-63
2022/11/20 12:32:23;;;;;;;5.88;4.95;;;;;;;;;;6244097;28;20077;-63
2022/11/20 12:35:37;;;;;;;5.88;4.95;;;;;;;;;;6239628;28;20049;-63
2022/11/20 12:39:02;;;;;;;6.35;5.50;;;;;;;;;;6247933;28;20151;-63
2022/11/20 12:46:04;;;;;;;7.18;5.88;;;;;;;;;;6245937;28;20041;-62
2022/11/20 12:49:23;;;;;;;7.82;6.03;;;;;;;;;;6242933;28;22081;-63
2022/11/20 12:52:39;;;;;;;8.07;5.70;;;;;;;;;;6244159;28;20302;-63
2022/11/20 12:55:49;;;;;;;6.95;5.68;;;;;;;;;;6245651;28;20099;-63
2022/11/20 12:58:59;;;;;;;6.78;5.40;;;;;;;;;;6242900;28;20267;-63
2022/11/20 13:02:18;;;;;;;8.32;5.65;;;;;;;;;;6243598;28;20053;-64
2022/11/20 13:05:23;;;;;;;7.50;5.32;;;;;;;;;;6243297;28;20061;-63
2022/11/20 13:08:26;;;;;;;6.20;5.38;;;;;;;;;;6244947;28;20345;-62
2022/11/20 13:11:32;;;;;;;;;;;;;;;;;;6245665;28;20054;-62
2022/11/20 13:14:37;;;;;;;8.05;5.93;;;;;;;;;;6245190;28;19929;-62
2022/11/20 13:17:42;;;;;;;7.15;5.20;;;;;;;;;;6261778;28;20321;-62
2022/11/20 13:20:46;;;;;;;5.65;4.53;;;;;;;;;;6268165;28;20059;-62
2022/11/20 13:23:48;;;;;;;7.00;4.85;;;;;;;;;;6268100;28;20052;-62
2022/11/20 13:27:01;;;;;;;6.20;4.60;;;;;;;;;;6270257;28;20083;-62
2022/11/20 13:30:15;;;;;;;5.90;4.47;;;;;;;;;;6267641;28;20120;-62
2022/11/20 13:33:25;;;;;;;6.03;4.80;;;;;;;;;;6268207;28;20468;-63
2022/11/20 13:36:28;;;;;;;6.00;4.22;;;;;;;;;;6267251;28;20060;-63
2022/11/20 13:39:31;;;;;;;6.63;4.90;;;;;;;;;;6265412;28;20049;-63
2022/11/20 13:42:36;;;;;;;6.80;5.15;;;;;;;;;;6270435;28;20087;-63
2022/11/20 13:45:38;;;;;;;7.20;5.00;;;;;;;;;;6266153;28;20048;-63
2022/11/20 13:48:41;;;;;;;7.47;5.15;;;;;;;;;;6270037;28;20209;-63
2022/11/20 13:51:45;;;;;;;6.78;4.80;;;;;;;;;;6270898;28;20082;-63
2022/11/20 13:54:58;;;;;;;5.43;4.35;;;;;;;;;;6268604;28;20332;-62
2022/11/20 13:58:08;;;;;;;6.47;4.55;;;;;;;;;;6264619;28;20236;-63
2022/11/20 14:01:15;;;;;;;6.20;4.15;;;;;;;;;;6267678;28;20048;-62
2022/11/20 14:04:20;;;;;;;3.95;3.38;;;;;;;;;;6270278;28;20249;-62
2022/11/20 14:07:25;;;;;;;4.40;4.00;;;;;;;;;;6268376;28;20355;-62
2022/11/20 14:10:29;;;;;;;5.07;3.78;;;;;;;;;;6265225;28;20379;-63
2022/11/20 14:13:32;;;;;;;7.25;4.60;;;;;;;;;;6264072;28;20053;-63
2022/11/20 14:16:36;;;;;;;5.95;4.40;;;;;;;;;;6263922;28;20057;-63
2022/11/20 14:19:39;;;;;;;6.32;4.32;;;;;;;;;;6268760;28;20090;-63
2022/11/20 14:22:48;;;;;;;;;;;;;;;;;;6265818;28;20053;-63
2022/11/20 14:25:50;;;;;;;6.30;4.25;;;;;;;;;;6264816;28;19928;-63
2022/11/20 14:28:53;;;;;;;7.60;4.13;;;;;;;;;;6264188;28;20340;-62
2022/11/20 14:31:55;;;;;;;6.13;4.20;;;;;;;;;;6266392;28;20083;-62
2022/11/20 14:35:00;;;;;;;4.85;3.35;;;;;;;;;;6269353;28;20106;-62
2022/11/20 14:38:02;;;;;;;3.45;2.70;;;;;;;;;;6265692;28;20057;-62
2022/11/20 14:41:07;;;;;;;3.90;2.78;;;;;;;;;;6264734;28;20067;-63
2022/11/20 14:44:11;;;;;;;2.47;1.75;;;;;;;;;;6264707;28;20072;-63
2022/11/20 14:47:14;;;;;;;2.80;1.92;;;;;;;;;;6265392;28;20052;-63
2022/11/20 14:50:19;;;;;;;3.15;1.70;;;;;;;;;;6265527;28;20057;-62
2022/11/20 14:53:23;;;;;;;2.42;1.88;;;;;;;;;;6268135;28;20057;-63
2022/11/20 14:56:25;;;;;;;3.50;2.40;;;;;;;;;;6264548;28;20254;-63
2022/11/20 14:59:30;;;;;;;3.17;1.88;;;;;;;;;;6262687;28;20056;-63
2022/11/20 15:02:31;;;;;;;3.00;1.80;;;;;;;;;;6266163;28;20055;-63
2022/11/20 15:05:46;;;;;;;2.70;1.70;;;;;;;;;;6269406;28;20083;-63
2022/11/20 15:08:52;;;;;;;2.92;2.25;;;;;;;;;;6265857;28;20048;-63
2022/11/20 15:11:56;;;;;;;3.72;2.50;;;;;;;;;;6268166;28;20116;-63
2022/11/20 15:14:59;;;;;;;3.58;2.17;;;;;;;;;;6262385;28;20068;-63
2022/11/20 15:18:01;;;;;;;3.80;2.30;;;;;;;;;;6263707;28;20095;-63
2022/11/20 15:21:04;;;;;;;4.55;2.40;;;;;;;;;;6263622;28;20084;-62
2022/11/20 15:24:09;;;;;;;4.55;2.63;;;;;;;;;;6267339;28;20229;-62
2022/11/20 15:27:11;;;;;;;6.57;2.28;;;;;;;;;;6262121;28;20261;-63
2022/11/20 15:30:17;;;;;;;4.25;2.58;;;;;;;;;;6257369;28;20056;-64
2022/11/20 15:33:19;;;;;;;5.00;2.85;;;;;;;;;;6259342;28;20052;-61
2022/11/20 15:36:21;;;;;;;4.35;2.88;;;;;;;;;;6263921;28;20059;-64
2022/11/20 15:39:22;;;;;;;4.32;2.70;;;;;;;;;;6267863;28;20099;-64
2022/11/20 15:42:24;;;;;;;5.38;3.13;;;;;;;;;;6264656;28;20099;-61
2022/11/20 15:45:29;;;;;;;5.07;2.92;;;;;;;;;;6259839;28;20052;-64
2022/11/20 15:48:32;;;;;;;4.95;2.50;;;;;;;;;;6265281;28;21920;-64
2022/11/20 15:51:36;;;;;;;4.35;2.53;;;;;;;;;;6265175;28;20116;-64
2022/11/20 15:54:37;;;;;;;3.88;2.40;;;;;;;;;;6266383;28;20210;-64
2022/11/20 15:57:39;;;;;;;4.65;3.00;;;;;;;;;;6273550;28;20077;-64
2022/11/20 16:00:42;;;;;;;4.57;2.83;;;;;;;;;;6270009;28;20061;-64
2022/11/20 16:03:44;;;;;;;4.47;2.90;;;;;;;;;;6270593;28;20056;-64
2022/11/20 16:06:45;;;;;;;5.70;2.85;;;;;;;;;;6270550;28;20061;-64
2022/11/20 16:09:47;;;;;;;5.65;3.53;;;;;;;;;;6269639;28;20049;-64
2022/11/20 16:16:24;;;;;;;6.43;4.22;;;;;;;;;;6267151;28;20061;-64
2022/11/20 16:19:25;;;;;;;5.05;3.35;;;;;;;;;;6263868;28;20052;-64
2022/11/20 16:22:27;;;;;;;5.50;3.17;;;;;;;;;;6271091;28;20044;-64
2022/11/20 16:25:29;;;;;;;4.55;3.45;;;;;;;;;;6263470;28;20053;-64
2022/11/20 16:28:30;;;;;;;4.43;3.30;;;;;;;;;;6265153;28;20092;-64
2022/11/20 16:31:34;;;;;;;4.47;3.20;;;;;;;;;;6272026;28;20249;-63
2022/11/20 16:34:35;;;;;;;5.00;3.42;;;;;;;;;;6261112;28;20095;-64
2022/11/20 16:37:38;;;;;;;4.55;3.20;;;;;;;;;;6264587;28;20053;-64
2022/11/20 16:40:40;;;;;;;6.15;3.33;;;;;;;;;;6267001;28;20095;-63
2022/11/20 16:43:49;;;;;;;6.00;3.85;;;;;;;;;;6267975;28;20368;-63
2022/11/20 16:46:52;;;;;;;6.13;3.88;;;;;;;;;;6268074;28;20061;-63
2022/11/20 16:49:53;;;;;;;6.80;4.07;;;;;;;;;;6266401;28;20057;-63
2022/11/20 16:52:56;;;;;;;6.80;4.20;;;;;;;;;;6265737;28;20052;-63
2022/11/20 16:55:57;;;;;;;6.50;4.00;;;;;;;;;;6271211;28;20056;-64
2022/11/20 16:59:01;;;;;;;6.13;4.15;;;;;;;;;;6260850;28;20053;-64
2022/11/20 17:02:04;;;;;;;6.68;3.92;;;;;;;;;;6265822;28;20050;-63
2022/11/20 17:05:06;;;;;;;7.50;4.20;;;;;;;;;;6259767;28;20092;-63
2022/11/20 17:08:08;;;;;;;6.00;4.03;;;;;;;;;;6253865;28;20467;-63
2022/11/20 17:11:12;;;;;;;6.55;4.28;;;;;;;;;;6264785;28;20284;-66
2022/11/20 17:14:13;;;;;;;5.45;3.95;;;;;;;;;;6255962;28;20049;-64
2022/11/20 17:17:16;;;;;;;5.78;3.95;;;;;;;;;;6272038;28;20264;-65
2022/11/20 17:20:18;;;;;;;7.63;4.33;;;;;;;;;;6268609;28;20347;-63
2022/11/20 17:23:20;;;;;;;8.05;4.68;;;;;;;;;;6270732;28;20048;-64
2022/11/20 17:26:23;;;;;;;7.55;4.97;;;;;;;;;;6270648;28;20053;-65
2022/11/20 17:29:25;;;;;;;7.70;5.03;;;;;;;;;;6271741;28;20284;-64
2022/11/20 17:32:28;;;;;;;10.27;5.95;;;;;;;;;;6266811;28;20061;-65
2022/11/20 17:35:29;;;;;;;6.83;5.43;;;;;;;;;;6268347;28;20053;-64
2022/11/20 17:38:31;;;;;;;6.88;5.18;;;;;;;;;;6266130;28;20336;-63
2022/11/20 17:41:33;;;;;;;8.25;5.50;;;;;;;;;;6261953;28;20333;-63
2022/11/20 17:44:35;;;;;;;8.70;6.28;;;;;;;;;;6269906;28;20049;-63
2022/11/20 17:47:38;;;;;;;8.38;6.13;;;;;;;;;;6263971;28;20099;-63
2022/11/20 17:50:39;;;;;;;10.43;5.83;;;;;;;;;;6267235;28;20466;-63
2022/11/20 17:53:42;;;;;;;8.98;5.72;;;;;;;;;;6264378;28;20052;-63
2022/11/20 18:00:03;;;;;;;10.02;6.40;;;;;;;;;;6268178;28;20052;-63
2022/11/20 18:03:06;;;;;;;10.07;7.30;;;;;;;;;;6267650;28;20143;-63
2022/11/20 18:06:10;;;;;;;10.70;7.47;;;;;;;;;;6266304;28;20264;-63
2022/11/20 18:09:12;;;;;;;11.45;7.30;;;;;;;;;;6266924;28;20048;-63
2022/11/20 18:12:13;;;;;;;11.43;7.97;;;;;;;;;;6267384;28;20056;-62
2022/11/20 18:15:16;;;;;;;12.55;8.57;;;;;;;;;;6264866;28;20041;-63
2022/11/20 18:18:19;;;;;;;12.18;8.48;;;;;;;;;;6267573;28;20115;-62
2022/11/20 18:21:20;;;;;;;11.57;7.78;;;;;;;;;;6271274;28;20057;-63
2022/11/20 18:24:22;;;;;;;12.13;7.65;;;;;;;;;;6268303;28;20083;-63
2022/11/20 18:27:24;;;;;;;13.82;7.80;;;;;;;;;;6271079;28;20044;-63
2022/11/20 18:30:26;;;;;;;10.32;7.30;;;;;;;;;;6270039;28;20041;-63
2022/11/20 18:33:30;;;;;;;12.02;7.82;;;;;;;;;;6269400;28;20049;-63